Portada
METAR-TAF:

METAR-TAF

Aeroports :

Beja, Portugal

latitud: 38-04-40N, longitud: 007-55-57W, altitud: 193 m

Observació

L'informe es va fer fa 1 hora i 5 minuts, a les 22:00 UTC
Vent 7 kt del Oest
Temperatura 26°C
Humitat 45%
Pressió 1018 hPa
Visibilitat 10 km o més
sense núvols per sota de 1500 mi sense presència de cumulonimbus.

METAR: LPBJ 232200Z 27007KT CAVOK 26/13 Q1018

Hora: 00:05 (23:05 UTC)

Pronòstic

L'informe es va fer fa 5 hores i 57 minuts, a les 17:08 UTC
Pronòstic vàlid del 23 a les 18 UTC al 24 a les 18 UTC
Vent 8 kt del Nord-Oest
Visibilitat 10 km o més
sense núvols per sota de 1500 mi sense presència de cumulonimbus.
Evolucionant progressivament
l' 23 a les 22 UTC al 23 a les 24 UTC
Vent 2 kt amb direcció variable

TAF: LPBJ 231708Z 2318/2418 31008KT CAVOK BECMG 2322/2324 VRB02KT

Observacions i pronòstics meteorològics de més de 4000 aeroports (METAR i TAF).

Les estacions disponibles són els punts grocs i vermells al mapa.

Posi el ratolí al punt desitjat per veure el nom de l'estació.

Feu clic per veure les observacions i els pronòstics meteorològics.

Per canviar el mapa: feu clic els botons verds amb una creu de color negre per apropar; al botó verd amb un guió per allunyar la imatge; o en les fletxes verdes per a mapes adjacents.


METAR-TAF: